createdAt,value
2019-02-24T00:00:04.060Z,103197.17
2019-02-24T00:02:30.135Z,103198.49
2019-02-24T00:04:56.133Z,103195.01
2019-02-24T00:07:22.113Z,103191.12
2019-02-24T00:09:48.088Z,103194.61
2019-02-24T00:12:14.071Z,103190.66
2019-02-24T00:14:40.169Z,103192.44
2019-02-24T00:17:06.155Z,103200.34
2019-02-24T00:19:32.160Z,103192.91
2019-02-24T00:21:58.239Z,103197.71
2019-02-24T00:24:24.216Z,103199.87
2019-02-24T00:26:50.223Z,103204.30
2019-02-24T00:29:16.195Z,103199.97
2019-02-24T00:31:42.189Z,103197.81
2019-02-24T00:34:08.160Z,103199.97
2019-02-24T00:36:34.159Z,103202.20
2019-02-24T00:39:00.136Z,103202.30
2019-02-24T00:41:26.125Z,103200.52
2019-02-24T00:43:52.235Z,103203.63
2019-02-24T00:46:18.223Z,103206.72
2019-02-24T00:48:44.227Z,103207.64
2019-02-24T00:51:10.201Z,103203.22
2019-02-24T00:53:36.179Z,103202.37
2019-02-24T00:56:02.172Z,103191.45
2019-02-24T00:58:28.153Z,103190.13
2019-02-24T01:00:54.148Z,103189.25
2019-02-24T01:03:20.136Z,103182.23
2019-02-24T01:05:46.123Z,103185.77
2019-02-24T01:08:12.095Z,103191.14
2019-02-24T01:10:38.109Z,103188.41
2019-02-24T01:13:04.082Z,103193.30
2019-02-24T01:15:30.091Z,103186.28
2019-02-24T01:17:56.106Z,103178.38
2019-02-24T01:20:22.068Z,103181.01
2019-02-24T01:22:48.074Z,103181.11
2019-02-24T01:25:14.103Z,103181.11
2019-02-24T01:27:40.102Z,103183.74
2019-02-24T01:30:06.099Z,103176.75
2019-02-24T01:32:32.186Z,103179.37
2019-02-24T01:34:58.203Z,103183.80
2019-02-24T01:37:24.176Z,103178.54
2019-02-24T01:39:50.160Z,103185.13
2019-02-24T01:42:16.145Z,103181.27
2019-02-24T01:44:42.170Z,103182.11
2019-02-24T01:47:08.263Z,103183.02
2019-02-24T01:49:34.273Z,103176.91
2019-02-24T01:52:00.268Z,103178.70
2019-02-24T01:54:26.326Z,103181.34
2019-02-24T01:56:52.339Z,103175.12
2019-02-24T01:59:18.314Z,103169.00
2019-02-24T02:01:44.295Z,103166.38
2019-02-24T02:04:10.329Z,103166.44
2019-02-24T02:06:36.349Z,103164.27
2019-02-24T02:09:02.412Z,103157.21
2019-02-24T02:11:28.376Z,103151.56
2019-02-24T02:13:54.357Z,103152.89
2019-02-24T02:16:20.375Z,103156.47
2019-02-24T02:18:46.429Z,103151.64
2019-02-24T02:21:12.415Z,103151.64
2019-02-24T02:23:38.389Z,103148.16
2019-02-24T02:26:04.360Z,103144.67
2019-02-24T02:28:30.378Z,103142.98
2019-02-24T02:30:56.348Z,103147.78
2019-02-24T02:33:22.328Z,103144.73
2019-02-24T02:35:48.402Z,103142.58
2019-02-24T02:38:14.399Z,103138.63
2019-02-24T02:40:40.396Z,103143.99
2019-02-24T02:43:06.493Z,103141.73
2019-02-24T02:45:32.473Z,103139.16
2019-02-24T02:47:58.445Z,103140.48
2019-02-24T02:50:24.433Z,103133.05
2019-02-24T02:52:50.450Z,103135.68
2019-02-24T02:55:16.483Z,103133.05
2019-02-24T02:57:42.468Z,103133.05
2019-02-24T03:00:08.443Z,103134.84
2019-02-24T03:02:34.558Z,103135.78
2019-02-24T03:05:00.546Z,103135.78
2019-02-24T03:07:26.552Z,103132.73
2019-02-24T03:09:52.532Z,103128.78
2019-02-24T03:12:18.507Z,103127.09
2019-02-24T03:14:44.495Z,103134.13
2019-02-24T03:17:10.490Z,103133.75
2019-02-24T03:19:36.490Z,103135.44
2019-02-24T03:22:02.471Z,103133.38
2019-02-24T03:24:28.461Z,103139.96
2019-02-24T03:26:54.444Z,103140.33
2019-02-24T03:29:20.440Z,103143.91
2019-02-24T03:31:46.426Z,103142.59
2019-02-24T03:34:12.413Z,103136.01
2019-02-24T03:36:38.437Z,103147.45
2019-02-24T03:39:04.471Z,103142.66
2019-02-24T03:41:30.452Z,103149.72
2019-02-24T03:43:56.431Z,103148.40
2019-02-24T03:46:22.460Z,103146.67
2019-02-24T03:48:48.442Z,103153.27
2019-02-24T03:51:14.407Z,103159.00
2019-02-24T03:53:40.444Z,103162.11
2019-02-24T03:56:06.468Z,103158.16
2019-02-24T03:58:32.493Z,103163.42
2019-02-24T04:00:58.509Z,103167.00
2019-02-24T04:03:24.483Z,103167.00
2019-02-24T04:05:50.475Z,103165.27
2019-02-24T04:08:16.492Z,103162.17
2019-02-24T04:10:42.492Z,103159.16
2019-02-24T04:13:08.478Z,103164.42
2019-02-24T04:15:34.485Z,103163.59
2019-02-24T04:18:00.477Z,103165.81
2019-02-24T04:20:26.499Z,103165.81
2019-02-24T04:22:52.583Z,103169.39
2019-02-24T04:25:18.561Z,103174.66
2019-02-24T04:27:44.622Z,103175.97
2019-02-24T04:30:10.583Z,103169.86
2019-02-24T04:32:36.573Z,103179.52
2019-02-24T04:35:02.556Z,103182.15
2019-02-24T04:37:28.559Z,103177.83
2019-02-24T04:39:55.576Z,103174.34
2019-02-24T04:42:21.565Z,103175.66
2019-02-24T04:44:47.548Z,103176.98
2019-02-24T04:47:13.543Z,103180.93
2019-02-24T04:49:39.535Z,103183.63
2019-02-24T04:52:05.507Z,103186.26
2019-02-24T04:54:31.515Z,103184.09
2019-02-24T04:56:57.584Z,103189.83
2019-02-24T04:59:23.563Z,103192.37
2019-02-24T05:01:49.545Z,103193.69
2019-02-24T05:04:15.560Z,103193.63
2019-02-24T05:06:41.581Z,103192.69
2019-02-24T05:09:07.638Z,103192.25
2019-02-24T05:11:34.678Z,103200.05
2019-02-24T05:14:00.679Z,103203.47
2019-02-24T05:16:26.661Z,103202.56
2019-02-24T05:18:52.646Z,103199.83
2019-02-24T05:21:18.609Z,103199.36
2019-02-24T05:23:44.642Z,103194.50
2019-02-24T05:26:10.628Z,103198.36
2019-02-24T05:28:36.620Z,103199.23
2019-02-24T05:31:02.709Z,103201.77
2019-02-24T05:33:28.688Z,103199.98
2019-02-24T05:35:54.676Z,103199.92
2019-02-24T05:38:20.660Z,103198.12
2019-02-24T05:40:46.643Z,103198.91
2019-02-24T05:43:12.621Z,103198.91
2019-02-24T05:45:38.604Z,103194.42
2019-02-24T05:48:04.600Z,103187.84
2019-02-24T05:50:30.647Z,103192.57
2019-02-24T05:52:56.632Z,103187.30
2019-02-24T05:55:22.672Z,103185.52
2019-02-24T05:57:48.745Z,103188.08
2019-02-24T06:00:14.730Z,103189.41
2019-02-24T06:02:40.711Z,103191.09
2019-02-24T06:05:06.680Z,103187.52
2019-02-24T06:07:33.273Z,103197.14
2019-02-24T06:09:59.415Z,103192.66
2019-02-24T06:12:25.442Z,103195.30
2019-02-24T06:14:51.555Z,103191.71
2019-02-24T06:17:17.532Z,103191.65
2019-02-24T06:19:43.521Z,103185.53
2019-02-24T06:22:09.496Z,103186.28
2019-02-24T06:24:35.475Z,103196.82
2019-02-24T06:27:01.514Z,103193.30
2019-02-24T06:29:27.491Z,103199.42
2019-02-24T06:31:53.590Z,103199.89
2019-02-24T06:34:19.681Z,103197.63
2019-02-24T06:36:45.732Z,103198.95
2019-02-24T06:39:11.709Z,103196.79
2019-02-24T06:41:37.969Z,103199.42
2019-02-24T06:44:04.317Z,103202.43
2019-02-24T06:46:30.300Z,103201.99
2019-02-24T06:48:56.958Z,103199.42
2019-02-24T06:51:22.999Z,103204.22
2019-02-24T06:53:49.051Z,103207.27
2019-02-24T06:56:15.039Z,103202.37
2019-02-24T06:58:41.001Z,103204.16
2019-02-24T07:01:06.983Z,103200.14
2019-02-24T07:03:32.952Z,103203.15
2019-02-24T07:05:58.930Z,103202.67
2019-02-24T07:08:24.906Z,103211.43
2019-02-24T07:10:50.948Z,103217.17
2019-02-24T07:13:16.912Z,103218.89
2019-02-24T07:15:43.008Z,103223.70
2019-02-24T07:18:09.091Z,103231.60
2019-02-24T07:20:35.089Z,103225.48
2019-02-24T07:23:01.060Z,103230.75
2019-02-24T07:25:27.246Z,103220.22
2019-02-24T07:27:53.216Z,103225.86
2019-02-24T07:30:23.596Z,103222.38
2019-02-24T07:32:46.898Z,103223.70
2019-02-24T07:35:13.393Z,103218.42
2019-02-24T07:37:39.480Z,103220.12
2019-02-24T07:40:05.484Z,103221.91
2019-02-24T07:42:31.824Z,103223.22
2019-02-24T07:44:57.916Z,103226.70
2019-02-24T07:47:24.090Z,103224.06
2019-02-24T07:49:50.094Z,103219.20
2019-02-24T07:52:16.338Z,103219.20
2019-02-24T07:54:42.611Z,103220.89
2019-02-24T07:57:08.704Z,103219.58
2019-02-24T07:59:34.840Z,103222.21
2019-02-24T08:02:01.281Z,103218.27
2019-02-24T08:04:27.351Z,103228.33
2019-02-24T08:06:53.356Z,103231.44
2019-02-24T08:09:19.595Z,103234.08
2019-02-24T08:11:45.604Z,103233.13
2019-02-24T08:14:11.679Z,103244.99
2019-02-24T08:16:38.392Z,103230.97
2019-02-24T08:19:04.594Z,103230.50
2019-02-24T08:21:30.628Z,103219.52
2019-02-24T08:23:56.608Z,103217.72
2019-02-24T08:26:22.648Z,103215.09
2019-02-24T08:28:48.695Z,103216.87
2019-02-24T08:31:14.669Z,103219.04
2019-02-24T08:33:40.681Z,103218.63
2019-02-24T08:36:06.656Z,103218.57
2019-02-24T08:38:32.657Z,103225.09
2019-02-24T08:40:58.977Z,103222.90
2019-02-24T08:43:25.009Z,103228.10
2019-02-24T08:45:51.173Z,103222.90
2019-02-24T08:48:19.160Z,103228.10
2019-02-24T08:50:44.899Z,103223.78
2019-02-24T08:53:10.902Z,103230.27
2019-02-24T08:55:36.959Z,103232.91
2019-02-24T08:58:02.937Z,103234.22
2019-02-24T09:00:29.017Z,103241.69
2019-02-24T09:02:54.995Z,103240.37
2019-02-24T09:05:21.171Z,103241.69
2019-02-24T09:07:47.161Z,103239.50
2019-02-24T09:10:13.163Z,103241.69
2019-02-24T09:12:39.157Z,103242.06
2019-02-24T09:15:05.151Z,103242.53
2019-02-24T09:17:31.123Z,103246.48
2019-02-24T09:19:58.445Z,103241.13
2019-02-24T09:22:24.488Z,103240.37
2019-02-24T09:24:50.521Z,103245.55
2019-02-24T09:27:16.511Z,103249.03
2019-02-24T09:29:42.604Z,103247.58
2019-02-24T09:32:08.848Z,103251.44
2019-02-24T09:34:34.885Z,103254.92
2019-02-24T09:37:00.893Z,103257.55
2019-02-24T09:39:26.942Z,103262.45
2019-02-24T09:41:52.921Z,103266.41
2019-02-24T09:44:18.929Z,103272.16
2019-02-24T09:46:44.904Z,103270.36
2019-02-24T09:49:10.904Z,103275.16
2019-02-24T09:51:36.879Z,103279.59
2019-02-24T09:54:02.883Z,103276.95
2019-02-24T09:56:28.867Z,103283.17
2019-02-24T09:58:54.857Z,103280.53
2019-02-24T10:01:20.898Z,103292.77
2019-02-24T10:03:46.897Z,103278.74
2019-02-24T10:06:12.904Z,103287.13
2019-02-24T10:08:38.980Z,103288.45
2019-02-24T10:11:05.463Z,103285.81
2019-02-24T10:13:31.475Z,103278.81
2019-02-24T10:15:57.456Z,103284.08
2019-02-24T10:18:23.449Z,103280.97
2019-02-24T10:20:49.480Z,103281.92
2019-02-24T10:23:15.509Z,103285.40
2019-02-24T10:25:41.596Z,103285.88
2019-02-24T10:28:07.632Z,103293.31
2019-02-24T10:30:33.636Z,103292.94
2019-02-24T10:32:59.606Z,103297.27
2019-02-24T10:35:25.620Z,103299.52
2019-02-24T10:37:51.600Z,103304.80
2019-02-24T10:40:17.759Z,103306.48
2019-02-24T10:42:43.798Z,103303.85
2019-02-24T10:45:09.818Z,103303.85
2019-02-24T10:47:35.840Z,103302.53
2019-02-24T10:50:01.816Z,103299.90
2019-02-24T10:52:27.833Z,103295.03
2019-02-24T10:54:53.817Z,103291.52
2019-02-24T10:57:19.852Z,103287.56
2019-02-24T10:59:46.010Z,103283.61
2019-02-24T11:02:12.009Z,103280.97
2019-02-24T11:04:38.012Z,103280.53
2019-02-24T11:07:03.983Z,103278.34
2019-02-24T11:09:30.086Z,103274.31
2019-02-24T11:11:56.346Z,103276.11
2019-02-24T11:14:22.472Z,103277.02
2019-02-24T11:16:48.451Z,103277.02
2019-02-24T11:19:14.467Z,103270.42
2019-02-24T11:21:40.588Z,103277.90
2019-02-24T11:24:06.661Z,103276.17
2019-02-24T11:26:32.715Z,103273.53
2019-02-24T11:28:58.744Z,103273.53
2019-02-24T11:31:24.832Z,103269.58
2019-02-24T11:33:50.885Z,103271.84
2019-02-24T11:36:17.065Z,103264.78
2019-02-24T11:38:43.113Z,103263.46
2019-02-24T11:41:09.121Z,103260.83
2019-02-24T11:43:35.148Z,103257.72
2019-02-24T11:46:03.909Z,103260.83
2019-02-24T11:48:29.932Z,103252.45
2019-02-24T11:50:56.480Z,103260.35
2019-02-24T11:53:22.544Z,103254.71
2019-02-24T11:55:48.633Z,103248.49
2019-02-24T11:58:14.700Z,103252.92
2019-02-24T12:00:40.745Z,103247.17
2019-02-24T12:03:06.749Z,103254.17
2019-02-24T12:05:32.743Z,103255.08
2019-02-24T12:07:58.729Z,103246.33
2019-02-24T12:10:25.864Z,103238.05
2019-02-24T12:12:51.882Z,103245.02
2019-02-24T12:15:17.965Z,103246.33
2019-02-24T12:17:44.041Z,103246.80
2019-02-24T12:20:10.163Z,103242.84
2019-02-24T12:22:36.552Z,103246.33
2019-02-24T12:25:02.653Z,103243.76
2019-02-24T12:27:28.692Z,103232.30
2019-02-24T12:29:54.704Z,103231.45
2019-02-24T12:32:20.924Z,103230.51
2019-02-24T12:34:48.851Z,103227.03
2019-02-24T12:37:14.916Z,103224.77
2019-02-24T12:39:40.925Z,103222.60
2019-02-24T12:42:07.119Z,103209.89
2019-02-24T12:44:33.560Z,103213.84
2019-02-24T12:47:00.549Z,103213.00
2019-02-24T12:49:26.658Z,103214.76
2019-02-24T12:51:52.655Z,103215.16
2019-02-24T12:54:18.663Z,103217.80
2019-02-24T12:56:44.646Z,103211.21
2019-02-24T12:59:12.622Z,103209.35
2019-02-24T13:01:38.623Z,103201.28
2019-02-24T13:04:04.827Z,103199.42
2019-02-24T13:06:30.832Z,103198.00
2019-02-24T13:08:56.863Z,103193.04
2019-02-24T13:11:22.897Z,103203.05
2019-02-24T13:13:50.108Z,103195.91
2019-02-24T13:16:17.225Z,103193.52
2019-02-24T13:18:43.242Z,103191.95
2019-02-24T13:21:10.329Z,103193.00
2019-02-24T13:23:36.333Z,103186.65
2019-02-24T13:26:02.345Z,103189.89
2019-02-24T13:28:28.411Z,103190.19
2019-02-24T13:30:54.404Z,103184.67
2019-02-24T13:33:20.401Z,103170.94
2019-02-24T13:35:46.435Z,103167.76
2019-02-24T13:38:12.414Z,103167.98
2019-02-24T13:40:38.442Z,103165.65
2019-02-24T13:43:04.452Z,103173.39
2019-02-24T13:45:30.455Z,103171.42
2019-02-24T13:47:56.444Z,103172.20
2019-02-24T13:50:22.431Z,103166.00
2019-02-24T13:52:48.529Z,103171.66
2019-02-24T13:55:14.545Z,103163.26
2019-02-24T13:57:40.557Z,103163.12
2019-02-24T14:00:06.543Z,103155.50
2019-02-24T14:02:32.600Z,103145.71
2019-02-24T14:04:58.606Z,103138.20
2019-02-24T14:07:24.639Z,103140.29
2019-02-24T14:09:50.688Z,103140.11
2019-02-24T14:12:16.693Z,103138.23
2019-02-24T14:14:48.900Z,103142.94
2019-02-24T14:17:12.706Z,103142.39
2019-02-24T14:19:38.670Z,103141.00
2019-02-24T14:22:04.723Z,103137.81
2019-02-24T14:24:30.701Z,103129.70
2019-02-24T14:26:56.735Z,103130.55
2019-02-24T14:29:22.794Z,103127.28
2019-02-24T14:31:48.824Z,103126.34
2019-02-24T14:34:14.801Z,103129.74
2019-02-24T14:36:40.899Z,103131.91
2019-02-24T14:39:07.632Z,103141.08
2019-02-24T14:41:33.813Z,103144.93
2019-02-24T14:44:00.084Z,103144.01
2019-02-24T14:46:26.113Z,103145.33
2019-02-24T14:48:52.144Z,103137.41
2019-02-24T14:51:18.138Z,103148.34
2019-02-24T14:53:44.157Z,103137.01
2019-02-24T14:56:10.129Z,103137.48
2019-02-24T14:58:36.114Z,103141.55
2019-02-24T15:01:02.111Z,103140.30
2019-02-24T15:03:28.124Z,103141.70
2019-02-24T15:05:54.112Z,103141.81
2019-02-24T15:08:20.176Z,103145.84
2019-02-24T15:10:48.227Z,103142.44
2019-02-24T15:13:13.868Z,103140.74
2019-02-24T15:15:39.853Z,103140.34
2019-02-24T15:18:05.985Z,103136.96
2019-02-24T15:20:32.137Z,103137.41
2019-02-24T15:22:58.218Z,103134.40
2019-02-24T15:25:24.215Z,103133.55
2019-02-24T15:27:50.236Z,103135.79
2019-02-24T15:30:16.284Z,103132.30
2019-02-24T15:32:51.156Z,103128.83
2019-02-24T15:35:10.080Z,103127.10
2019-02-24T15:37:36.140Z,103128.42
2019-02-24T15:40:04.124Z,103129.00
2019-02-24T15:42:29.920Z,103130.69
2019-02-24T15:44:55.907Z,103139.09
2019-02-24T15:47:21.884Z,103131.16
2019-02-24T15:49:49.746Z,103123.32
2019-02-24T15:52:15.878Z,103126.91
2019-02-24T15:54:41.896Z,103133.03
2019-02-24T15:57:07.928Z,103132.19
2019-02-24T15:59:33.942Z,103132.66
2019-02-24T16:01:59.998Z,103134.42
2019-02-24T16:04:26.108Z,103129.15
2019-02-24T16:06:52.172Z,103134.42
2019-02-24T16:09:19.675Z,103136.70
2019-02-24T16:11:45.859Z,103126.14
2019-02-24T16:14:11.860Z,103130.10
2019-02-24T16:16:37.884Z,103131.89
2019-02-24T16:19:03.918Z,103134.53
2019-02-24T16:21:29.929Z,103135.92
2019-02-24T16:23:55.912Z,103134.61
2019-02-24T16:26:21.932Z,103135.08
2019-02-24T16:28:47.927Z,103139.05
2019-02-24T16:31:13.908Z,103138.20
2019-02-24T16:33:39.902Z,103140.44
2019-02-24T16:36:05.896Z,103136.00
2019-02-24T16:38:31.903Z,103140.84
2019-02-24T16:40:57.874Z,103137.80
2019-02-24T16:43:23.851Z,103134.68
2019-02-24T16:45:49.877Z,103134.68
2019-02-24T16:48:15.862Z,103135.16
2019-02-24T16:50:41.871Z,103132.52
2019-02-24T16:53:07.848Z,103132.04
2019-02-24T16:55:33.848Z,103135.63
2019-02-24T16:57:59.964Z,103136.95
2019-02-24T17:00:26.016Z,103133.94
2019-02-24T17:02:52.127Z,103134.02
2019-02-24T17:05:18.357Z,103138.34
2019-02-24T17:07:44.399Z,103135.16
2019-02-24T17:10:10.456Z,103131.97
2019-02-24T17:12:36.503Z,103136.70
2019-02-24T17:15:02.485Z,103144.44
2019-02-24T17:17:28.509Z,103142.57
2019-02-24T17:19:54.592Z,103143.71
2019-02-24T17:22:20.618Z,103155.44
2019-02-24T17:24:46.599Z,103157.98
2019-02-24T17:27:13.135Z,103160.55
2019-02-24T17:29:39.205Z,103158.56
2019-02-24T17:32:05.596Z,103163.77
2019-02-24T17:34:31.673Z,103161.06
2019-02-24T17:37:03.507Z,103165.21
2019-02-24T17:39:29.552Z,103161.17
2019-02-24T17:41:55.551Z,103167.67
2019-02-24T17:44:21.560Z,103163.27
2019-02-24T17:46:47.667Z,103169.31
2019-02-24T17:49:13.710Z,103170.05
2019-02-24T17:51:39.807Z,103169.98
2019-02-24T17:54:05.879Z,103170.34
2019-02-24T17:56:31.901Z,103174.60
2019-02-24T17:58:57.896Z,103163.67
2019-02-24T18:01:23.923Z,103164.14
2019-02-24T18:03:49.977Z,103167.63
2019-02-24T18:06:16.029Z,103169.91
2019-02-24T18:08:42.118Z,103167.81
2019-02-24T18:11:08.115Z,103163.74
2019-02-24T18:13:34.192Z,103167.70
2019-02-24T18:16:00.281Z,103166.86
2019-02-24T18:18:26.299Z,103167.81
2019-02-24T18:20:52.293Z,103173.46
2019-02-24T18:23:18.372Z,103167.81
2019-02-24T18:25:44.383Z,103169.98
2019-02-24T18:28:10.394Z,103170.82
2019-02-24T18:30:36.384Z,103181.31
2019-02-24T18:33:02.447Z,103173.86
2019-02-24T18:35:28.524Z,103173.86
2019-02-24T18:37:54.530Z,103170.27
2019-02-24T18:40:22.143Z,103169.80
2019-02-24T18:42:48.153Z,103171.96
2019-02-24T18:45:14.185Z,103171.52
2019-02-24T18:47:40.223Z,103167.08
2019-02-24T18:50:06.249Z,103170.09
2019-02-24T18:52:32.313Z,103169.80
2019-02-24T18:54:58.335Z,103172.55
2019-02-24T18:57:24.784Z,103171.59
2019-02-24T18:59:50.878Z,103171.12
2019-02-24T19:02:16.951Z,103177.24
2019-02-24T19:04:43.004Z,103176.80
2019-02-24T19:07:09.007Z,103174.16
2019-02-24T19:09:35.007Z,103176.69
2019-02-24T19:12:01.022Z,103169.17
2019-02-24T19:14:27.020Z,103169.54
2019-02-24T19:16:53.097Z,103160.30
2019-02-24T19:19:25.344Z,103165.39
2019-02-24T19:21:46.918Z,103159.27
2019-02-24T19:24:13.118Z,103150.50
2019-02-24T19:26:39.159Z,103157.10
2019-02-24T19:29:05.224Z,103162.86
2019-02-24T19:31:31.265Z,103160.22
2019-02-24T19:34:06.101Z,103158.50
2019-02-24T19:36:24.977Z,103160.30
2019-02-24T19:38:51.001Z,103159.45
2019-02-24T19:41:17.016Z,103155.48
2019-02-24T19:43:43.027Z,103160.70
2019-02-24T19:46:09.107Z,103158.34
2019-02-24T19:48:41.753Z,103169.76
2019-02-24T19:51:03.037Z,103173.80
2019-02-24T19:53:29.064Z,103178.23
2019-02-24T19:55:55.137Z,103183.52
2019-02-24T19:58:21.229Z,103192.77
2019-02-24T20:00:47.220Z,103197.20
2019-02-24T20:03:13.229Z,103197.67
2019-02-24T20:05:39.272Z,103198.99
2019-02-24T20:08:05.353Z,103201.16
2019-02-24T20:10:31.468Z,103201.63
2019-02-24T20:12:57.503Z,103211.25
2019-02-24T20:15:23.500Z,103212.64
2019-02-24T20:17:49.597Z,103215.28
2019-02-24T20:20:15.616Z,103225.41
2019-02-24T20:22:41.628Z,103230.69
2019-02-24T20:25:07.644Z,103233.77
2019-02-24T20:27:33.639Z,103232.01
2019-02-24T20:29:59.633Z,103236.41
2019-02-24T20:32:25.713Z,103237.73
2019-02-24T20:34:51.717Z,103250.50
2019-02-24T20:37:18.789Z,103244.81
2019-02-24T20:39:44.809Z,103251.82
2019-02-24T20:42:10.961Z,103251.41
2019-02-24T20:44:36.958Z,103261.06
2019-02-24T20:47:02.940Z,103255.78
2019-02-24T20:49:28.942Z,103258.02
2019-02-24T20:51:54.970Z,103253.59
2019-02-24T20:54:20.983Z,103252.27
2019-02-24T20:56:47.034Z,103254.53
2019-02-24T20:59:13.133Z,103254.06
2019-02-24T21:01:39.193Z,103259.75
2019-02-24T21:04:05.175Z,103262.83
2019-02-24T21:06:31.148Z,103264.15
2019-02-24T21:08:57.135Z,103262.83
2019-02-24T21:11:23.149Z,103264.15
2019-02-24T21:13:49.140Z,103265.47
2019-02-24T21:16:15.116Z,103264.55
2019-02-24T21:18:41.107Z,103264.15
2019-02-24T21:21:07.130Z,103268.41
2019-02-24T21:23:33.133Z,103265.62
2019-02-24T21:25:59.185Z,103275.23
2019-02-24T21:28:25.183Z,103272.52
2019-02-24T21:30:51.207Z,103270.62
2019-02-24T21:33:18.219Z,103279.31
2019-02-24T21:35:44.589Z,103278.88
2019-02-24T21:38:12.064Z,103275.28
2019-02-24T21:40:38.211Z,103274.33
2019-02-24T21:43:04.276Z,103266.40
2019-02-24T21:45:30.391Z,103259.80
2019-02-24T21:47:56.417Z,103255.84
2019-02-24T21:50:22.519Z,103249.16
2019-02-24T21:52:48.696Z,103248.68
2019-02-24T21:55:14.708Z,103243.80
2019-02-24T21:57:40.696Z,103239.73
2019-02-24T22:00:06.820Z,103240.67
2019-02-24T22:02:32.874Z,103240.20
2019-02-24T22:04:58.884Z,103245.86
2019-02-24T22:07:24.941Z,103247.17
2019-02-24T22:09:51.072Z,103247.58
2019-02-24T22:12:17.092Z,103251.06
2019-02-24T22:14:43.143Z,103247.10
2019-02-24T22:17:09.131Z,103245.30
2019-02-24T22:19:35.138Z,103241.34
2019-02-24T22:22:01.164Z,103236.45
2019-02-24T22:24:27.160Z,103236.94
2019-02-24T22:26:53.163Z,103239.94
2019-02-24T22:29:19.156Z,103230.22
2019-02-24T22:31:45.231Z,103238.15
2019-02-24T22:34:11.206Z,103231.06
2019-02-24T22:36:37.323Z,103237.67
2019-02-24T22:39:05.115Z,103234.29
2019-02-24T22:41:31.250Z,103229.93
2019-02-24T22:43:57.240Z,103232.20
2019-02-24T22:46:23.228Z,103228.23
2019-02-24T22:48:49.209Z,103232.20
2019-02-24T22:51:15.276Z,103223.80
2019-02-24T22:53:41.255Z,103221.63
2019-02-24T22:56:07.264Z,103220.75
2019-02-24T22:58:33.240Z,103215.10
2019-02-24T23:00:59.315Z,103217.38
2019-02-24T23:03:25.323Z,103216.13
2019-02-24T23:05:51.307Z,103217.52
2019-02-24T23:08:17.302Z,103213.37
2019-02-24T23:10:43.289Z,103211.36
2019-02-24T23:13:09.296Z,103212.39
2019-02-24T23:15:35.272Z,103215.21
2019-02-24T23:18:01.268Z,103219.35
2019-02-24T23:20:27.323Z,103213.84
2019-02-24T23:22:53.329Z,103221.00
2019-02-24T23:25:19.304Z,103216.37
2019-02-24T23:27:45.328Z,103219.64
2019-02-24T23:30:11.484Z,103232.06
2019-02-24T23:32:37.459Z,103233.56
2019-02-24T23:35:03.539Z,103234.59
2019-02-24T23:37:29.520Z,103233.45
2019-02-24T23:39:55.589Z,103242.39
2019-02-24T23:42:21.558Z,103247.36
2019-02-24T23:44:47.544Z,103241.78
2019-02-24T23:47:13.564Z,103233.47
2019-02-24T23:49:39.559Z,103226.67
2019-02-24T23:52:05.617Z,103225.49
2019-02-24T23:54:31.592Z,103231.80
2019-02-24T23:56:57.673Z,103237.61
2019-02-24T23:59:23.648Z,103239.03
